createdAt,value
2019-05-16T00:04:33.726Z,13.57
2019-05-16T00:09:38.016Z,13.45
2019-05-16T00:14:41.150Z,13.38
2019-05-16T00:19:43.208Z,13.36
2019-05-16T00:24:45.471Z,13.38
2019-05-16T00:29:48.730Z,13.33
2019-05-16T00:34:50.937Z,13.30
2019-05-16T00:39:53.146Z,13.27
2019-05-16T00:44:55.297Z,13.33
2019-05-16T00:49:58.248Z,13.24
2019-05-16T00:55:02.850Z,13.21
2019-05-16T01:00:08.114Z,13.21
2019-05-16T01:05:09.729Z,13.23
2019-05-16T01:10:11.953Z,13.28
2019-05-16T01:15:18.363Z,13.25
2019-05-16T01:20:20.439Z,13.24
2019-05-16T01:25:22.490Z,13.17
2019-05-16T01:30:24.848Z,13.16
2019-05-16T01:35:27.892Z,13.07
2019-05-16T01:40:30.225Z,13.03
2019-05-16T01:45:32.278Z,13.00
2019-05-16T01:50:34.405Z,13.01
2019-05-16T01:55:38.114Z,12.98
2019-05-16T02:00:52.516Z,12.97
2019-05-16T02:05:47.926Z,13.01
2019-05-16T02:10:49.559Z,13.03
2019-05-16T02:15:51.663Z,13.01
2019-05-16T02:20:53.714Z,12.99
2019-05-16T02:25:57.823Z,13.04
2019-05-16T02:31:01.311Z,12.95
2019-05-16T02:36:03.740Z,12.81
2019-05-16T02:41:05.851Z,12.73
2019-05-16T02:46:11.615Z,12.62
2019-05-16T02:51:11.951Z,12.44
2019-05-16T02:56:14.162Z,12.36
2019-05-16T03:01:16.265Z,12.27
2019-05-16T03:06:21.145Z,12.16
2019-05-16T03:11:24.114Z,12.07
2019-05-16T03:16:31.600Z,11.98
2019-05-16T03:21:34.051Z,11.93
2019-05-16T03:26:36.799Z,11.95
2019-05-16T03:31:44.435Z,11.99
2019-05-16T03:36:43.881Z,12.03
2019-05-16T03:41:46.677Z,12.07
2019-05-16T03:46:51.687Z,12.13
2019-05-16T03:51:52.720Z,12.10
2019-05-16T03:56:54.814Z,12.04
2019-05-16T04:01:56.889Z,12.01
2019-05-16T04:07:01.443Z,11.96
2019-05-16T04:12:04.035Z,11.97
2019-05-16T04:17:06.101Z,11.98
2019-05-16T04:22:13.600Z,11.90
2019-05-16T04:27:15.651Z,11.86
2019-05-16T04:32:20.549Z,11.85
2019-05-16T04:37:26.039Z,11.79
2019-05-16T04:42:25.933Z,11.70
2019-05-16T04:47:31.450Z,11.73
2019-05-16T04:52:32.140Z,11.74
2019-05-16T04:57:37.815Z,11.76
2019-05-16T05:02:41.785Z,11.75
2019-05-16T05:07:44.193Z,11.72
2019-05-16T05:12:46.265Z,11.72
2019-05-16T05:18:21.754Z,11.73
2019-05-16T05:23:24.876Z,11.70
2019-05-16T05:28:26.964Z,11.64
2019-05-16T05:33:30.315Z,11.68
2019-05-16T05:38:34.919Z,11.69
2019-05-16T05:43:37.013Z,11.72
2019-05-16T05:48:41.098Z,11.71
2019-05-16T05:53:45.463Z,11.70
2019-05-16T05:58:47.524Z,11.74
2019-05-16T06:03:50.493Z,11.83
2019-05-16T06:08:52.971Z,11.77
2019-05-16T06:13:57.188Z,11.86
2019-05-16T06:19:00.888Z,11.89
2019-05-16T06:24:05.034Z,11.88
2019-05-16T06:29:10.181Z,11.88
2019-05-16T06:34:15.222Z,11.91
2019-05-16T06:39:16.220Z,11.88
2019-05-16T06:44:20.313Z,12.02
2019-05-16T06:49:22.331Z,11.98
2019-05-16T06:54:24.466Z,12.04
2019-05-16T06:59:26.539Z,12.16
2019-05-16T07:04:30.472Z,12.13
2019-05-16T07:09:32.808Z,12.21
2019-05-16T07:14:35.579Z,12.24
2019-05-16T07:19:37.688Z,12.24
2019-05-16T07:24:40.027Z,12.24
2019-05-16T07:29:43.691Z,12.26
2019-05-16T07:34:45.783Z,12.27
2019-05-16T07:39:50.876Z,12.22
2019-05-16T07:44:52.083Z,12.33
2019-05-16T07:49:54.145Z,12.30
2019-05-16T07:54:56.088Z,12.29
2019-05-16T08:00:00.173Z,12.35
2019-05-16T08:05:03.772Z,12.38
2019-05-16T08:10:06.119Z,12.45
2019-05-16T08:15:10.180Z,12.39
2019-05-16T08:20:13.024Z,12.57
2019-05-16T08:25:15.136Z,12.59
2019-05-16T08:30:20.805Z,12.66
2019-05-16T08:35:22.938Z,12.68
2019-05-16T08:40:24.983Z,12.58
2019-05-16T08:45:27.506Z,12.60
2019-05-16T08:50:34.728Z,12.62
2019-05-16T08:55:33.555Z,12.64
2019-05-16T09:00:35.689Z,12.67
2019-05-16T09:05:37.801Z,12.72
2019-05-16T09:10:51.372Z,12.82
2019-05-16T09:15:48.010Z,12.79
2019-05-16T09:20:50.323Z,12.76
2019-05-16T09:25:53.151Z,12.82
2019-05-16T09:30:57.750Z,12.85
2019-05-16T09:35:59.347Z,12.97
2019-05-16T09:41:07.915Z,12.98
2019-05-16T09:46:09.556Z,13.07
2019-05-16T09:51:11.786Z,13.18
2019-05-16T09:56:16.651Z,13.29
2019-05-16T10:01:17.847Z,13.37
2019-05-16T10:06:22.100Z,13.44
2019-05-16T10:11:31.228Z,13.58
2019-05-16T10:16:30.291Z,13.46
2019-05-16T10:21:36.972Z,13.50
2019-05-16T10:26:38.482Z,13.54
2019-05-16T10:31:48.466Z,13.58
2019-05-16T10:36:47.069Z,13.58
2019-05-16T10:41:48.531Z,13.55
2019-05-16T10:46:50.697Z,13.51
2019-05-16T10:51:57.546Z,13.48
2019-05-16T10:56:59.403Z,13.43
2019-05-16T11:02:01.725Z,13.49
2019-05-16T11:07:05.476Z,13.56
2019-05-16T11:12:07.537Z,13.60
2019-05-16T11:17:12.878Z,13.50
2019-05-16T11:22:13.693Z,13.52
2019-05-16T11:27:15.832Z,13.57
2019-05-16T11:32:17.962Z,13.57
2019-05-16T11:37:19.994Z,13.57
2019-05-16T11:42:22.075Z,13.57
2019-05-16T11:47:24.145Z,13.56
2019-05-16T11:52:26.212Z,13.68
2019-05-16T11:57:28.243Z,13.69
2019-05-16T12:02:30.350Z,13.74
2019-05-16T12:07:34.742Z,13.80
2019-05-16T12:12:38.687Z,13.89
2019-05-16T12:17:40.765Z,13.96
2019-05-16T12:22:42.833Z,14.03
2019-05-16T12:27:44.937Z,14.06
2019-05-16T12:32:47.224Z,14.06
2019-05-16T12:37:51.912Z,14.14
2019-05-16T12:42:54.465Z,14.13
2019-05-16T12:47:57.420Z,14.11
2019-05-16T12:52:59.750Z,14.15
2019-05-16T12:58:12.574Z,14.13
2019-05-16T13:03:07.190Z,14.09
2019-05-16T13:08:09.712Z,14.21
2019-05-16T13:13:11.868Z,14.25
2019-05-16T13:18:16.737Z,14.25
2019-05-16T13:23:18.531Z,14.25
2019-05-16T13:28:20.750Z,14.30
2019-05-16T13:33:27.979Z,14.35
2019-05-16T13:38:30.107Z,14.37
2019-05-16T13:43:32.171Z,14.34
2019-05-16T13:48:34.262Z,14.23
2019-05-16T13:53:37.013Z,14.27
2019-05-16T13:58:39.286Z,14.35
2019-05-16T14:03:43.220Z,14.41
2019-05-16T14:08:46.767Z,14.37
2019-05-16T14:13:49.052Z,14.34
2019-05-16T14:18:52.234Z,14.39
2019-05-16T14:23:56.777Z,14.42
2019-05-16T14:28:58.934Z,14.49
2019-05-16T14:34:01.475Z,14.52
2019-05-16T14:39:05.823Z,14.53
2019-05-16T14:44:07.972Z,14.53
2019-05-16T14:49:11.126Z,14.54
2019-05-16T14:54:13.230Z,14.55
2019-05-16T14:59:15.261Z,14.50
2019-05-16T15:04:17.357Z,14.41
2019-05-16T15:09:19.378Z,14.45
2019-05-16T15:14:21.477Z,14.33
2019-05-16T15:19:23.561Z,14.41
2019-05-16T15:24:26.854Z,14.41
2019-05-16T15:29:29.239Z,14.39
2019-05-16T15:34:34.476Z,14.39
2019-05-16T15:39:37.390Z,14.37
2019-05-16T15:44:42.939Z,14.32
2019-05-16T15:49:47.561Z,14.33
2019-05-16T15:54:49.644Z,14.38
2019-05-16T15:59:51.702Z,14.36
2019-05-16T16:04:53.747Z,14.37
2019-05-16T16:09:57.654Z,14.32
2019-05-16T16:15:01.301Z,14.40
2019-05-16T16:20:03.497Z,14.45
2019-05-16T16:25:06.845Z,14.35
2019-05-16T16:30:09.472Z,14.42
2019-05-16T16:35:14.060Z,14.48
2019-05-16T16:40:17.574Z,14.46
2019-05-16T16:45:20.083Z,14.47
2019-05-16T16:50:22.214Z,14.41
2019-05-16T16:55:27.389Z,14.30
2019-05-16T17:00:29.162Z,14.21
2019-05-16T17:05:31.238Z,14.24
2019-05-16T17:10:33.328Z,14.25
2019-05-16T17:15:36.809Z,14.13
2019-05-16T17:20:40.492Z,14.17
2019-05-16T17:25:42.573Z,14.16
2019-05-16T17:30:46.863Z,14.07
2019-05-16T17:35:49.171Z,13.99
2019-05-16T17:40:51.543Z,13.91
2019-05-16T17:45:53.555Z,13.90
2019-05-16T17:50:57.067Z,13.92
2019-05-16T17:55:59.259Z,13.96
2019-05-16T18:01:01.318Z,13.99
2019-05-16T18:06:03.362Z,14.03
2019-05-16T18:11:07.223Z,14.02
2019-05-16T18:16:13.878Z,14.04
2019-05-16T18:21:16.989Z,14.05
2019-05-16T18:26:19.337Z,13.95
2019-05-16T18:31:21.385Z,13.75
2019-05-16T18:36:23.605Z,13.88
2019-05-16T18:41:27.178Z,13.88
2019-05-16T18:46:29.408Z,13.87
2019-05-16T18:51:31.523Z,13.73
2019-05-16T18:56:36.566Z,13.64
2019-05-16T19:01:39.943Z,13.69
2019-05-16T19:06:42.025Z,13.58
2019-05-16T19:11:44.088Z,13.55
2019-05-16T19:16:48.919Z,13.53
2019-05-16T19:21:50.147Z,13.47
2019-05-16T19:26:53.251Z,13.49
2019-05-16T19:31:57.108Z,13.43
2019-05-16T19:36:59.321Z,13.55
2019-05-16T19:42:01.445Z,13.62
2019-05-16T19:47:03.507Z,13.56
2019-05-16T19:52:07.228Z,13.51
2019-05-16T19:57:09.476Z,13.65
2019-05-16T20:02:11.532Z,13.65
2019-05-16T20:07:13.569Z,13.66
2019-05-16T20:12:16.874Z,13.63
2019-05-16T20:17:19.434Z,13.56
2019-05-16T20:22:21.661Z,13.48
2019-05-16T20:27:23.733Z,13.45
2019-05-16T20:32:27.626Z,13.41
2019-05-16T20:37:29.801Z,13.34
2019-05-16T20:42:31.863Z,13.25
2019-05-16T20:47:33.907Z,13.21
2019-05-16T20:52:37.900Z,13.15
2019-05-16T20:57:39.954Z,13.07
2019-05-16T21:02:42.054Z,12.98
2019-05-16T21:07:46.077Z,12.91
2019-05-16T21:12:49.082Z,12.87
2019-05-16T21:17:51.190Z,12.84
2019-05-16T21:22:53.287Z,12.79
2019-05-16T21:27:57.325Z,12.75
2019-05-16T21:32:59.340Z,12.61
2019-05-16T21:38:01.413Z,12.65
2019-05-16T21:43:03.606Z,12.63
2019-05-16T21:48:07.451Z,12.60
2019-05-16T21:53:09.723Z,12.58
2019-05-16T21:58:11.731Z,12.53
2019-05-16T22:03:14.316Z,12.49
2019-05-16T22:08:16.883Z,12.32
2019-05-16T22:13:19.034Z,12.16
2019-05-16T22:18:21.216Z,12.31
2019-05-16T22:23:23.295Z,12.29
2019-05-16T22:28:27.538Z,12.27
2019-05-16T22:33:29.561Z,12.12
2019-05-16T22:38:31.733Z,12.17
2019-05-16T22:43:33.857Z,12.22
2019-05-16T22:48:37.242Z,12.24
2019-05-16T22:53:39.374Z,12.30
2019-05-16T22:58:41.492Z,12.37
2019-05-16T23:03:43.561Z,12.50
2019-05-16T23:08:47.116Z,12.53
2019-05-16T23:13:49.443Z,12.62
2019-05-16T23:18:51.496Z,12.61
2019-05-16T23:23:57.107Z,12.55
2019-05-16T23:28:59.369Z,12.66
2019-05-16T23:34:01.403Z,12.73
2019-05-16T23:39:06.263Z,12.69
2019-05-16T23:44:08.416Z,12.53
2019-05-16T23:49:10.509Z,12.63
2019-05-16T23:54:12.710Z,12.64
2019-05-16T23:59:16.995Z,12.48
